sensor_id;sensor_type;location;lat;lon;timestamp;P1;durP1;ratioP1;P2;durP2;ratioP2
6475;SDS011;3271;51.910;5.840;2023-02-15T00:01:38;21.38;;;16.65;;
6475;SDS011;3271;51.910;5.840;2023-02-15T00:04:05;19.02;;;16.75;;
6475;SDS011;3271;51.910;5.840;2023-02-15T00:06:31;20.98;;;16.95;;
6475;SDS011;3271;51.910;5.840;2023-02-15T00:08:57;19.00;;;16.45;;
6475;SDS011;3271;51.910;5.840;2023-02-15T00:11:23;21.83;;;17.52;;
6475;SDS011;3271;51.910;5.840;2023-02-15T00:14:08;19.23;;;16.73;;
6475;SDS011;3271;51.910;5.840;2023-02-15T00:16:35;20.08;;;17.52;;
6475;SDS011;3271;51.910;5.840;2023-02-15T00:19:01;21.45;;;18.45;;
6475;SDS011;3271;51.910;5.840;2023-02-15T00:21:28;22.20;;;18.20;;
6475;SDS011;3271;51.910;5.840;2023-02-15T00:23:54;20.75;;;17.45;;
6475;SDS011;3271;51.910;5.840;2023-02-15T00:26:20;19.38;;;17.00;;
6475;SDS011;3271;51.910;5.840;2023-02-15T00:28:46;20.90;;;16.30;;
6475;SDS011;3271;51.910;5.840;2023-02-15T00:31:12;20.90;;;17.10;;
6475;SDS011;3271;51.910;5.840;2023-02-15T00:33:38;18.88;;;16.48;;
6475;SDS011;3271;51.910;5.840;2023-02-15T00:36:05;20.42;;;16.23;;
6475;SDS011;3271;51.910;5.840;2023-02-15T00:38:32;19.63;;;15.88;;
6475;SDS011;3271;51.910;5.840;2023-02-15T00:40:59;20.65;;;17.40;;
6475;SDS011;3271;51.910;5.840;2023-02-15T00:43:25;18.73;;;16.23;;
6475;SDS011;3271;51.910;5.840;2023-02-15T00:45:52;19.65;;;16.65;;
6475;SDS011;3271;51.910;5.840;2023-02-15T00:48:18;19.67;;;16.13;;
6475;SDS011;3271;51.910;5.840;2023-02-15T00:50:48;22.88;;;17.70;;
6475;SDS011;3271;51.910;5.840;2023-02-15T00:53:14;18.63;;;15.82;;
6475;SDS011;3271;51.910;5.840;2023-02-15T00:55:40;22.00;;;17.67;;
6475;SDS011;3271;51.910;5.840;2023-02-15T00:58:07;21.15;;;16.15;;
6475;SDS011;3271;51.910;5.840;2023-02-15T01:00:33;18.60;;;16.35;;
6475;SDS011;3271;51.910;5.840;2023-02-15T01:02:59;17.42;;;14.77;;
6475;SDS011;3271;51.910;5.840;2023-02-15T01:05:25;18.17;;;15.10;;
6475;SDS011;3271;51.910;5.840;2023-02-15T01:07:51;18.73;;;16.13;;
6475;SDS011;3271;51.910;5.840;2023-02-15T01:10:17;21.88;;;16.55;;
6475;SDS011;3271;51.910;5.840;2023-02-15T01:12:43;18.15;;;15.93;;
6475;SDS011;3271;51.910;5.840;2023-02-15T01:15:09;17.38;;;15.30;;
6475;SDS011;3271;51.910;5.840;2023-02-15T01:17:35;17.08;;;15.27;;
6475;SDS011;3271;51.910;5.840;2023-02-15T01:20:01;18.77;;;15.52;;
6475;SDS011;3271;51.910;5.840;2023-02-15T01:22:28;18.17;;;15.18;;
6475;SDS011;3271;51.910;5.840;2023-02-15T01:24:53;19.00;;;15.90;;
6475;SDS011;3271;51.910;5.840;2023-02-15T01:27:19;18.15;;;15.73;;
6475;SDS011;3271;51.910;5.840;2023-02-15T01:29:45;18.98;;;15.95;;
6475;SDS011;3271;51.910;5.840;2023-02-15T01:32:12;17.63;;;15.18;;
6475;SDS011;3271;51.910;5.840;2023-02-15T01:34:38;21.20;;;15.75;;
6475;SDS011;3271;51.910;5.840;2023-02-15T01:37:04;16.02;;;14.38;;
6475;SDS011;3271;51.910;5.840;2023-02-15T01:39:30;20.38;;;15.52;;
6475;SDS011;3271;51.910;5.840;2023-02-15T01:41:56;19.60;;;15.70;;
6475;SDS011;3271;51.910;5.840;2023-02-15T01:44:45;17.58;;;14.52;;
6475;SDS011;3271;51.910;5.840;2023-02-15T01:47:12;19.35;;;15.75;;
6475;SDS011;3271;51.910;5.840;2023-02-15T01:49:39;18.88;;;15.50;;
6475;SDS011;3271;51.910;5.840;2023-02-15T01:52:06;18.42;;;15.07;;
6475;SDS011;3271;51.910;5.840;2023-02-15T01:54:33;19.08;;;14.70;;
6475;SDS011;3271;51.910;5.840;2023-02-15T01:57:02;18.48;;;14.70;;
6475;SDS011;3271;51.910;5.840;2023-02-15T01:59:28;17.67;;;14.75;;
6475;SDS011;3271;51.910;5.840;2023-02-15T02:01:57;19.65;;;15.07;;
6475;SDS011;3271;51.910;5.840;2023-02-15T02:04:41;21.10;;;16.20;;
6475;SDS011;3271;51.910;5.840;2023-02-15T02:07:07;18.77;;;15.52;;
6475;SDS011;3271;51.910;5.840;2023-02-15T02:09:34;20.05;;;14.50;;
6475;SDS011;3271;51.910;5.840;2023-02-15T02:12:01;18.13;;;14.00;;
6475;SDS011;3271;51.910;5.840;2023-02-15T02:14:27;18.42;;;14.63;;
6475;SDS011;3271;51.910;5.840;2023-02-15T02:19:44;16.95;;;12.93;;
6475;SDS011;3271;51.910;5.840;2023-02-15T02:22:19;15.43;;;13.15;;
6475;SDS011;3271;51.910;5.840;2023-02-15T02:24:58;17.13;;;14.40;;
6475;SDS011;3271;51.910;5.840;2023-02-15T02:27:33;17.52;;;13.07;;
6475;SDS011;3271;51.910;5.840;2023-02-15T02:35:18;14.88;;;13.10;;
6475;SDS011;3271;51.910;5.840;2023-02-15T02:38:03;14.85;;;12.65;;
6475;SDS011;3271;51.910;5.840;2023-02-15T02:40:55;15.00;;;12.57;;
6475;SDS011;3271;51.910;5.840;2023-02-15T02:43:21;15.75;;;13.15;;
6475;SDS011;3271;51.910;5.840;2023-02-15T02:48:21;14.80;;;12.60;;
6475;SDS011;3271;51.910;5.840;2023-02-15T02:50:48;17.20;;;13.65;;
6475;SDS011;3271;51.910;5.840;2023-02-15T02:53:14;16.73;;;13.80;;
6475;SDS011;3271;51.910;5.840;2023-02-15T02:55:50;15.80;;;12.40;;
6475;SDS011;3271;51.910;5.840;2023-02-15T02:58:22;16.10;;;12.48;;
6475;SDS011;3271;51.910;5.840;2023-02-15T03:00:54;15.52;;;12.02;;
6475;SDS011;3271;51.910;5.840;2023-02-15T03:03:24;15.75;;;12.43;;
6475;SDS011;3271;51.910;5.840;2023-02-15T03:05:53;14.82;;;11.52;;
6475;SDS011;3271;51.910;5.840;2023-02-15T03:08:20;14.60;;;12.55;;
6475;SDS011;3271;51.910;5.840;2023-02-15T03:10:53;15.13;;;12.43;;
6475;SDS011;3271;51.910;5.840;2023-02-15T03:13:19;14.73;;;12.68;;
6475;SDS011;3271;51.910;5.840;2023-02-15T03:15:45;14.77;;;12.65;;
6475;SDS011;3271;51.910;5.840;2023-02-15T03:18:33;14.30;;;12.38;;
6475;SDS011;3271;51.910;5.840;2023-02-15T03:20:59;16.65;;;13.25;;
6475;SDS011;3271;51.910;5.840;2023-02-15T03:23:26;18.08;;;12.32;;
6475;SDS011;3271;51.910;5.840;2023-02-15T03:25:57;17.33;;;13.70;;
6475;SDS011;3271;51.910;5.840;2023-02-15T03:28:25;18.08;;;13.30;;
6475;SDS011;3271;51.910;5.840;2023-02-15T03:30:53;14.87;;;12.87;;
6475;SDS011;3271;51.910;5.840;2023-02-15T03:33:20;14.70;;;12.68;;
6475;SDS011;3271;51.910;5.840;2023-02-15T03:36:01;17.47;;;12.73;;
6475;SDS011;3271;51.910;5.840;2023-02-15T03:38:29;14.25;;;12.50;;
6475;SDS011;3271;51.910;5.840;2023-02-15T03:40:59;18.85;;;12.88;;
6475;SDS011;3271;51.910;5.840;2023-02-15T03:46:24;15.75;;;12.88;;
6475;SDS011;3271;51.910;5.840;2023-02-15T03:48:53;16.65;;;13.70;;
6475;SDS011;3271;51.910;5.840;2023-02-15T03:51:21;17.60;;;13.35;;
6475;SDS011;3271;51.910;5.840;2023-02-15T03:54:07;14.75;;;12.57;;
6475;SDS011;3271;51.910;5.840;2023-02-15T03:56:34;16.13;;;12.75;;
6475;SDS011;3271;51.910;5.840;2023-02-15T03:59:01;15.73;;;12.10;;
6475;SDS011;3271;51.910;5.840;2023-02-15T04:01:54;16.35;;;13.25;;
6475;SDS011;3271;51.910;5.840;2023-02-15T04:06:55;15.38;;;12.48;;
6475;SDS011;3271;51.910;5.840;2023-02-15T04:09:21;15.25;;;12.48;;
6475;SDS011;3271;51.910;5.840;2023-02-15T04:12:05;15.55;;;13.27;;
6475;SDS011;3271;51.910;5.840;2023-02-15T04:14:32;15.10;;;12.18;;
6475;SDS011;3271;51.910;5.840;2023-02-15T04:17:16;14.93;;;12.33;;
6475;SDS011;3271;51.910;5.840;2023-02-15T04:19:42;15.90;;;12.70;;
6475;SDS011;3271;51.910;5.840;2023-02-15T04:22:27;16.17;;;12.27;;
6475;SDS011;3271;51.910;5.840;2023-02-15T04:25:11;15.03;;;12.03;;
6475;SDS011;3271;51.910;5.840;2023-02-15T04:27:37;15.63;;;12.40;;
6475;SDS011;3271;51.910;5.840;2023-02-15T04:30:04;14.23;;;12.45;;
6475;SDS011;3271;51.910;5.840;2023-02-15T04:32:30;16.58;;;12.68;;
6475;SDS011;3271;51.910;5.840;2023-02-15T04:34:56;14.65;;;11.90;;
6475;SDS011;3271;51.910;5.840;2023-02-15T04:37:22;14.77;;;11.85;;
6475;SDS011;3271;51.910;5.840;2023-02-15T04:39:47;14.95;;;13.13;;
6475;SDS011;3271;51.910;5.840;2023-02-15T04:42:14;15.95;;;12.43;;
6475;SDS011;3271;51.910;5.840;2023-02-15T04:44:41;14.55;;;12.23;;
6475;SDS011;3271;51.910;5.840;2023-02-15T04:47:07;15.45;;;12.38;;
6475;SDS011;3271;51.910;5.840;2023-02-15T04:49:33;14.47;;;11.73;;
6475;SDS011;3271;51.910;5.840;2023-02-15T04:51:59;16.92;;;13.15;;
6475;SDS011;3271;51.910;5.840;2023-02-15T04:54:25;14.98;;;12.63;;
6475;SDS011;3271;51.910;5.840;2023-02-15T04:56:51;14.35;;;12.00;;
6475;SDS011;3271;51.910;5.840;2023-02-15T04:59:16;13.55;;;11.70;;
6475;SDS011;3271;51.910;5.840;2023-02-15T05:01:42;15.45;;;12.73;;
6475;SDS011;3271;51.910;5.840;2023-02-15T05:04:08;14.50;;;11.57;;
6475;SDS011;3271;51.910;5.840;2023-02-15T05:06:34;16.50;;;12.35;;
6475;SDS011;3271;51.910;5.840;2023-02-15T05:09:00;15.55;;;12.55;;
6475;SDS011;3271;51.910;5.840;2023-02-15T05:11:27;16.15;;;12.18;;
6475;SDS011;3271;51.910;5.840;2023-02-15T05:13:52;19.48;;;12.95;;
6475;SDS011;3271;51.910;5.840;2023-02-15T05:16:18;16.73;;;12.57;;
6475;SDS011;3271;51.910;5.840;2023-02-15T05:18:44;17.55;;;14.05;;
6475;SDS011;3271;51.910;5.840;2023-02-15T05:21:10;20.85;;;14.25;;
6475;SDS011;3271;51.910;5.840;2023-02-15T05:23:38;18.77;;;13.97;;
6475;SDS011;3271;51.910;5.840;2023-02-15T05:26:04;23.67;;;14.30;;
6475;SDS011;3271;51.910;5.840;2023-02-15T05:28:49;19.75;;;13.95;;
6475;SDS011;3271;51.910;5.840;2023-02-15T05:31:18;22.20;;;15.32;;
6475;SDS011;3271;51.910;5.840;2023-02-15T05:33:44;23.25;;;14.20;;
6475;SDS011;3271;51.910;5.840;2023-02-15T05:36:10;22.67;;;16.02;;
6475;SDS011;3271;51.910;5.840;2023-02-15T05:38:37;18.63;;;13.88;;
6475;SDS011;3271;51.910;5.840;2023-02-15T05:41:03;23.58;;;14.57;;
6475;SDS011;3271;51.910;5.840;2023-02-15T05:43:30;19.92;;;13.85;;
6475;SDS011;3271;51.910;5.840;2023-02-15T05:45:56;18.15;;;13.02;;
6475;SDS011;3271;51.910;5.840;2023-02-15T05:48:23;22.33;;;13.77;;
6475;SDS011;3271;51.910;5.840;2023-02-15T05:53:24;16.63;;;12.80;;
6475;SDS011;3271;51.910;5.840;2023-02-15T05:55:50;18.58;;;13.80;;
6475;SDS011;3271;51.910;5.840;2023-02-15T05:58:16;15.70;;;12.20;;
6475;SDS011;3271;51.910;5.840;2023-02-15T06:00:42;15.60;;;12.17;;
6475;SDS011;3271;51.910;5.840;2023-02-15T06:03:08;15.27;;;12.15;;
6475;SDS011;3271;51.910;5.840;2023-02-15T06:05:34;16.20;;;12.43;;
6475;SDS011;3271;51.910;5.840;2023-02-15T06:08:00;18.27;;;12.80;;
6475;SDS011;3271;51.910;5.840;2023-02-15T06:10:26;16.60;;;12.48;;
6475;SDS011;3271;51.910;5.840;2023-02-15T06:12:52;15.88;;;12.73;;
6475;SDS011;3271;51.910;5.840;2023-02-15T06:15:17;16.15;;;12.57;;
6475;SDS011;3271;51.910;5.840;2023-02-15T06:17:43;15.70;;;12.73;;
6475;SDS011;3271;51.910;5.840;2023-02-15T06:20:09;14.93;;;11.70;;
6475;SDS011;3271;51.910;5.840;2023-02-15T06:22:35;16.58;;;13.13;;
6475;SDS011;3271;51.910;5.840;2023-02-15T06:25:01;15.85;;;12.95;;
6475;SDS011;3271;51.910;5.840;2023-02-15T06:27:28;15.02;;;12.48;;
6475;SDS011;3271;51.910;5.840;2023-02-15T06:29:54;14.70;;;12.23;;
6475;SDS011;3271;51.910;5.840;2023-02-15T06:32:20;16.35;;;12.38;;
6475;SDS011;3271;51.910;5.840;2023-02-15T06:34:46;16.05;;;12.55;;
6475;SDS011;3271;51.910;5.840;2023-02-15T06:37:12;14.70;;;12.25;;
6475;SDS011;3271;51.910;5.840;2023-02-15T06:39:37;15.45;;;12.13;;
6475;SDS011;3271;51.910;5.840;2023-02-15T06:42:03;19.20;;;14.40;;
6475;SDS011;3271;51.910;5.840;2023-02-15T06:44:29;17.10;;;13.65;;
6475;SDS011;3271;51.910;5.840;2023-02-15T06:46:55;16.55;;;13.38;;
6475;SDS011;3271;51.910;5.840;2023-02-15T06:49:21;15.02;;;11.85;;
6475;SDS011;3271;51.910;5.840;2023-02-15T06:51:47;15.35;;;13.43;;
6475;SDS011;3271;51.910;5.840;2023-02-15T06:54:13;14.48;;;12.82;;
6475;SDS011;3271;51.910;5.840;2023-02-15T06:56:39;14.73;;;12.75;;
6475;SDS011;3271;51.910;5.840;2023-02-15T06:59:05;16.75;;;13.60;;
6475;SDS011;3271;51.910;5.840;2023-02-15T07:01:31;16.73;;;13.13;;
6475;SDS011;3271;51.910;5.840;2023-02-15T07:03:57;17.38;;;12.88;;
6475;SDS011;3271;51.910;5.840;2023-02-15T07:06:23;15.15;;;12.80;;
6475;SDS011;3271;51.910;5.840;2023-02-15T07:08:48;15.73;;;13.23;;
6475;SDS011;3271;51.910;5.840;2023-02-15T07:11:14;19.48;;;14.15;;
6475;SDS011;3271;51.910;5.840;2023-02-15T07:13:59;15.35;;;13.75;;
6475;SDS011;3271;51.910;5.840;2023-02-15T07:16:25;15.77;;;13.07;;
6475;SDS011;3271;51.910;5.840;2023-02-15T07:18:51;16.85;;;14.05;;
6475;SDS011;3271;51.910;5.840;2023-02-15T07:21:17;16.92;;;13.90;;
6475;SDS011;3271;51.910;5.840;2023-02-15T07:23:43;17.08;;;14.52;;
6475;SDS011;3271;51.910;5.840;2023-02-15T07:26:09;18.85;;;14.48;;
6475;SDS011;3271;51.910;5.840;2023-02-15T07:28:35;17.33;;;13.85;;
6475;SDS011;3271;51.910;5.840;2023-02-15T07:31:02;15.10;;;12.55;;
6475;SDS011;3271;51.910;5.840;2023-02-15T07:33:29;15.73;;;12.98;;
6475;SDS011;3271;51.910;5.840;2023-02-15T07:35:56;16.33;;;13.18;;
6475;SDS011;3271;51.910;5.840;2023-02-15T07:38:23;17.63;;;14.32;;
6475;SDS011;3271;51.910;5.840;2023-02-15T07:40:49;14.45;;;12.90;;
6475;SDS011;3271;51.910;5.840;2023-02-15T07:43:15;16.38;;;13.75;;
6475;SDS011;3271;51.910;5.840;2023-02-15T07:45:41;17.92;;;14.00;;
6475;SDS011;3271;51.910;5.840;2023-02-15T07:48:07;17.95;;;13.88;;
6475;SDS011;3271;51.910;5.840;2023-02-15T07:50:33;17.13;;;13.10;;
6475;SDS011;3271;51.910;5.840;2023-02-15T07:53:03;17.40;;;14.85;;
6475;SDS011;3271;51.910;5.840;2023-02-15T07:55:29;16.73;;;14.05;;
6475;SDS011;3271;51.910;5.840;2023-02-15T07:57:55;17.55;;;13.52;;
6475;SDS011;3271;51.910;5.840;2023-02-15T08:00:21;18.35;;;14.88;;
6475;SDS011;3271;51.910;5.840;2023-02-15T08:02:55;24.05;;;15.98;;
6475;SDS011;3271;51.910;5.840;2023-02-15T08:05:40;22.58;;;15.70;;
6475;SDS011;3271;51.910;5.840;2023-02-15T08:08:07;22.92;;;16.33;;
6475;SDS011;3271;51.910;5.840;2023-02-15T08:10:33;36.78;;;18.40;;
6475;SDS011;3271;51.910;5.840;2023-02-15T08:13:19;37.08;;;20.23;;
6475;SDS011;3271;51.910;5.840;2023-02-15T08:15:49;35.83;;;18.75;;
6475;SDS011;3271;51.910;5.840;2023-02-15T08:18:15;35.20;;;18.38;;
6475;SDS011;3271;51.910;5.840;2023-02-15T08:20:41;39.38;;;20.38;;
6475;SDS011;3271;51.910;5.840;2023-02-15T08:23:07;36.28;;;18.90;;
6475;SDS011;3271;51.910;5.840;2023-02-15T08:25:33;26.42;;;17.58;;
6475;SDS011;3271;51.910;5.840;2023-02-15T08:27:59;23.05;;;17.35;;
6475;SDS011;3271;51.910;5.840;2023-02-15T08:30:24;24.80;;;16.75;;
6475;SDS011;3271;51.910;5.840;2023-02-15T08:32:50;23.80;;;16.88;;
6475;SDS011;3271;51.910;5.840;2023-02-15T08:35:16;31.13;;;19.60;;
6475;SDS011;3271;51.910;5.840;2023-02-15T08:37:42;32.08;;;18.38;;
6475;SDS011;3271;51.910;5.840;2023-02-15T08:40:08;34.15;;;19.00;;
6475;SDS011;3271;51.910;5.840;2023-02-15T08:42:34;30.50;;;18.13;;
6475;SDS011;3271;51.910;5.840;2023-02-15T08:45:00;28.08;;;18.33;;
6475;SDS011;3271;51.910;5.840;2023-02-15T08:47:27;29.38;;;20.10;;
6475;SDS011;3271;51.910;5.840;2023-02-15T08:49:53;43.92;;;31.30;;
6475;SDS011;3271;51.910;5.840;2023-02-15T08:52:19;34.63;;;23.27;;
6475;SDS011;3271;51.910;5.840;2023-02-15T08:54:45;43.63;;;30.70;;
6475;SDS011;3271;51.910;5.840;2023-02-15T08:57:11;28.92;;;19.58;;
6475;SDS011;3271;51.910;5.840;2023-02-15T08:59:36;27.60;;;18.15;;
6475;SDS011;3271;51.910;5.840;2023-02-15T09:02:02;22.55;;;15.15;;
6475;SDS011;3271;51.910;5.840;2023-02-15T09:04:28;25.42;;;18.08;;
6475;SDS011;3271;51.910;5.840;2023-02-15T09:06:54;23.70;;;17.23;;
6475;SDS011;3271;51.910;5.840;2023-02-15T09:09:20;21.90;;;16.52;;
6475;SDS011;3271;51.910;5.840;2023-02-15T09:11:48;22.23;;;15.85;;
6475;SDS011;3271;51.910;5.840;2023-02-15T09:14:15;17.73;;;14.90;;
6475;SDS011;3271;51.910;5.840;2023-02-15T09:16:42;20.95;;;16.90;;
6475;SDS011;3271;51.910;5.840;2023-02-15T09:19:13;20.15;;;16.00;;
6475;SDS011;3271;51.910;5.840;2023-02-15T09:21:39;19.60;;;15.45;;
6475;SDS011;3271;51.910;5.840;2023-02-15T09:24:09;20.73;;;16.38;;
6475;SDS011;3271;51.910;5.840;2023-02-15T09:26:37;19.15;;;15.98;;
6475;SDS011;3271;51.910;5.840;2023-02-15T09:29:05;21.65;;;16.60;;
6475;SDS011;3271;51.910;5.840;2023-02-15T09:31:32;21.85;;;17.48;;
6475;SDS011;3271;51.910;5.840;2023-02-15T09:33:59;19.85;;;16.65;;
6475;SDS011;3271;51.910;5.840;2023-02-15T09:36:32;19.92;;;16.95;;
6475;SDS011;3271;51.910;5.840;2023-02-15T09:39:09;19.48;;;16.08;;
6475;SDS011;3271;51.910;5.840;2023-02-15T09:41:44;22.10;;;16.55;;
6475;SDS011;3271;51.910;5.840;2023-02-15T09:47:05;22.08;;;16.73;;
6475;SDS011;3271;51.910;5.840;2023-02-15T09:49:39;20.52;;;16.52;;
6475;SDS011;3271;51.910;5.840;2023-02-15T09:52:16;20.77;;;14.93;;
6475;SDS011;3271;51.910;5.840;2023-02-15T09:57:23;18.80;;;15.75;;
6475;SDS011;3271;51.910;5.840;2023-02-15T10:02:36;19.75;;;15.30;;
6475;SDS011;3271;51.910;5.840;2023-02-15T10:10:36;39.10;;;29.02;;
6475;SDS011;3271;51.910;5.840;2023-02-15T10:15:42;19.55;;;14.48;;
6475;SDS011;3271;51.910;5.840;2023-02-15T10:38:42;26.20;;;21.13;;
6475;SDS011;3271;51.910;5.840;2023-02-15T10:43:49;23.75;;;19.65;;
6475;SDS011;3271;51.910;5.840;2023-02-15T10:46:30;24.02;;;18.83;;
6475;SDS011;3271;51.910;5.840;2023-02-15T10:51:44;23.48;;;18.92;;
6475;SDS011;3271;51.910;5.840;2023-02-15T11:02:10;22.15;;;18.38;;
6475;SDS011;3271;51.910;5.840;2023-02-15T11:09:53;25.45;;;19.13;;
6475;SDS011;3271;51.910;5.840;2023-02-15T11:12:23;23.73;;;18.50;;
6475;SDS011;3271;51.910;5.840;2023-02-15T11:17:17;21.63;;;17.77;;
6475;SDS011;3271;51.910;5.840;2023-02-15T11:19:51;23.10;;;18.38;;
6475;SDS011;3271;51.910;5.840;2023-02-15T11:22:19;27.50;;;18.88;;
6475;SDS011;3271;51.910;5.840;2023-02-15T11:24:45;21.42;;;18.17;;
6475;SDS011;3271;51.910;5.840;2023-02-15T11:29:57;27.95;;;22.13;;
6475;SDS011;3271;51.910;5.840;2023-02-15T11:37:52;22.27;;;18.38;;
6475;SDS011;3271;51.910;5.840;2023-02-15T11:40:29;24.75;;;18.67;;
6475;SDS011;3271;51.910;5.840;2023-02-15T11:42:56;25.85;;;20.80;;
6475;SDS011;3271;51.910;5.840;2023-02-15T11:45:30;22.63;;;17.80;;
6475;SDS011;3271;51.910;5.840;2023-02-15T11:47:56;25.02;;;18.90;;
6475;SDS011;3271;51.910;5.840;2023-02-15T11:50:23;27.23;;;19.30;;
6475;SDS011;3271;51.910;5.840;2023-02-15T11:52:50;24.48;;;19.63;;
6475;SDS011;3271;51.910;5.840;2023-02-15T11:55:21;21.15;;;18.05;;
6475;SDS011;3271;51.910;5.840;2023-02-15T11:57:51;24.30;;;19.13;;
6475;SDS011;3271;51.910;5.840;2023-02-15T12:02:53;23.08;;;19.00;;
6475;SDS011;3271;51.910;5.840;2023-02-15T12:05:21;28.15;;;20.08;;
6475;SDS011;3271;51.910;5.840;2023-02-15T12:10:27;22.67;;;17.65;;
6475;SDS011;3271;51.910;5.840;2023-02-15T12:13:13;24.90;;;17.88;;
6475;SDS011;3271;51.910;5.840;2023-02-15T12:15:50;28.75;;;20.00;;
6475;SDS011;3271;51.910;5.840;2023-02-15T12:18:18;26.38;;;20.13;;
6475;SDS011;3271;51.910;5.840;2023-02-15T12:20:44;25.35;;;19.25;;
6475;SDS011;3271;51.910;5.840;2023-02-15T12:23:11;32.92;;;25.40;;
6475;SDS011;3271;51.910;5.840;2023-02-15T12:25:41;27.88;;;20.58;;
6475;SDS011;3271;51.910;5.840;2023-02-15T12:28:31;27.10;;;20.98;;
6475;SDS011;3271;51.910;5.840;2023-02-15T12:30:57;27.17;;;19.58;;
6475;SDS011;3271;51.910;5.840;2023-02-15T12:33:26;24.13;;;19.75;;
6475;SDS011;3271;51.910;5.840;2023-02-15T12:36:12;23.13;;;17.63;;
6475;SDS011;3271;51.910;5.840;2023-02-15T12:38:38;23.08;;;18.60;;
6475;SDS011;3271;51.910;5.840;2023-02-15T12:41:19;25.38;;;20.25;;
6475;SDS011;3271;51.910;5.840;2023-02-15T12:43:46;24.17;;;19.15;;
6475;SDS011;3271;51.910;5.840;2023-02-15T12:48:39;26.45;;;20.13;;
6475;SDS011;3271;51.910;5.840;2023-02-15T12:51:08;29.70;;;20.65;;
6475;SDS011;3271;51.910;5.840;2023-02-15T12:53:35;26.17;;;20.67;;
6475;SDS011;3271;51.910;5.840;2023-02-15T12:56:03;27.48;;;21.35;;
6475;SDS011;3271;51.910;5.840;2023-02-15T12:58:33;26.27;;;21.13;;
6475;SDS011;3271;51.910;5.840;2023-02-15T13:06:19;27.83;;;20.98;;
6475;SDS011;3271;51.910;5.840;2023-02-15T13:08:47;29.85;;;23.40;;
6475;SDS011;3271;51.910;5.840;2023-02-15T13:11:19;25.42;;;19.55;;
6475;SDS011;3271;51.910;5.840;2023-02-15T13:13:53;27.15;;;20.27;;
6475;SDS011;3271;51.910;5.840;2023-02-15T13:16:21;28.10;;;21.23;;
6475;SDS011;3271;51.910;5.840;2023-02-15T13:18:50;28.52;;;22.60;;
6475;SDS011;3271;51.910;5.840;2023-02-15T13:21:23;36.45;;;30.13;;
6475;SDS011;3271;51.910;5.840;2023-02-15T13:23:56;29.23;;;22.00;;
6475;SDS011;3271;51.910;5.840;2023-02-15T13:26:23;27.75;;;21.55;;
6475;SDS011;3271;51.910;5.840;2023-02-15T13:28:53;26.48;;;21.10;;
6475;SDS011;3271;51.910;5.840;2023-02-15T13:31:21;27.08;;;21.58;;
6475;SDS011;3271;51.910;5.840;2023-02-15T13:33:51;25.50;;;20.42;;
6475;SDS011;3271;51.910;5.840;2023-02-15T13:41:12;30.85;;;21.63;;
6475;SDS011;3271;51.910;5.840;2023-02-15T13:43:46;28.02;;;21.30;;
6475;SDS011;3271;51.910;5.840;2023-02-15T13:48:58;27.67;;;20.77;;
6475;SDS011;3271;51.910;5.840;2023-02-15T13:51:30;27.05;;;21.00;;
6475;SDS011;3271;51.910;5.840;2023-02-15T13:56:38;29.52;;;22.02;;
6475;SDS011;3271;51.910;5.840;2023-02-15T13:59:11;24.25;;;18.90;;
6475;SDS011;3271;51.910;5.840;2023-02-15T14:01:52;30.67;;;22.80;;
6475;SDS011;3271;51.910;5.840;2023-02-15T14:09:38;27.55;;;21.15;;
6475;SDS011;3271;51.910;5.840;2023-02-15T14:17:44;29.83;;;23.23;;
6475;SDS011;3271;51.910;5.840;2023-02-15T14:23:07;30.25;;;21.30;;
6475;SDS011;3271;51.910;5.840;2023-02-15T14:25:41;28.45;;;21.60;;
6475;SDS011;3271;51.910;5.840;2023-02-15T14:28:10;28.30;;;20.95;;
6475;SDS011;3271;51.910;5.840;2023-02-15T14:30:41;30.25;;;23.25;;
6475;SDS011;3271;51.910;5.840;2023-02-15T14:33:28;31.98;;;23.77;;
6475;SDS011;3271;51.910;5.840;2023-02-15T14:35:54;31.60;;;21.90;;
6475;SDS011;3271;51.910;5.840;2023-02-15T14:38:25;30.27;;;23.60;;
6475;SDS011;3271;51.910;5.840;2023-02-15T14:48:46;30.33;;;22.80;;
6475;SDS011;3271;51.910;5.840;2023-02-15T14:53:58;33.13;;;21.05;;
6475;SDS011;3271;51.910;5.840;2023-02-15T14:56:24;28.55;;;20.90;;
6475;SDS011;3271;51.910;5.840;2023-02-15T15:01:30;25.65;;;20.77;;
6475;SDS011;3271;51.910;5.840;2023-02-15T15:04:03;26.75;;;21.48;;
6475;SDS011;3271;51.910;5.840;2023-02-15T15:06:30;31.38;;;21.67;;
6475;SDS011;3271;51.910;5.840;2023-02-15T15:09:00;25.17;;;20.30;;
6475;SDS011;3271;51.910;5.840;2023-02-15T15:11:41;30.77;;;21.83;;
6475;SDS011;3271;51.910;5.840;2023-02-15T15:14:08;26.77;;;21.02;;
6475;SDS011;3271;51.910;5.840;2023-02-15T15:19:01;31.65;;;22.77;;
6475;SDS011;3271;51.910;5.840;2023-02-15T15:24:45;28.02;;;21.50;;
6475;SDS011;3271;51.910;5.840;2023-02-15T15:29:54;32.33;;;22.42;;
6475;SDS011;3271;51.910;5.840;2023-02-15T15:32:22;31.45;;;21.92;;
6475;SDS011;3271;51.910;5.840;2023-02-15T15:42:43;30.80;;;23.73;;
6475;SDS011;3271;51.910;5.840;2023-02-15T15:47:49;33.80;;;21.85;;
6475;SDS011;3271;51.910;5.840;2023-02-15T15:50:18;34.47;;;21.60;;
6475;SDS011;3271;51.910;5.840;2023-02-15T15:52:55;31.42;;;23.40;;
6475;SDS011;3271;51.910;5.840;2023-02-15T15:55:22;26.35;;;21.08;;
6475;SDS011;3271;51.910;5.840;2023-02-15T15:57:52;27.17;;;21.00;;
6475;SDS011;3271;51.910;5.840;2023-02-15T16:02:57;32.75;;;22.88;;
6475;SDS011;3271;51.910;5.840;2023-02-15T16:05:22;31.52;;;21.45;;
6475;SDS011;3271;51.910;5.840;2023-02-15T16:07:49;30.40;;;22.77;;
6475;SDS011;3271;51.910;5.840;2023-02-15T16:10:22;30.27;;;22.33;;
6475;SDS011;3271;51.910;5.840;2023-02-15T16:12:48;31.92;;;22.17;;
6475;SDS011;3271;51.910;5.840;2023-02-15T16:15:16;34.97;;;23.77;;
6475;SDS011;3271;51.910;5.840;2023-02-15T16:17:44;32.28;;;22.05;;
6475;SDS011;3271;51.910;5.840;2023-02-15T16:20:15;31.65;;;21.50;;
6475;SDS011;3271;51.910;5.840;2023-02-15T16:22:43;30.75;;;22.80;;
6475;SDS011;3271;51.910;5.840;2023-02-15T16:25:28;31.20;;;23.20;;
6475;SDS011;3271;51.910;5.840;2023-02-15T16:27:55;30.45;;;22.55;;
6475;SDS011;3271;51.910;5.840;2023-02-15T16:33:04;31.40;;;21.80;;
6475;SDS011;3271;51.910;5.840;2023-02-15T16:35:30;29.35;;;22.45;;
6475;SDS011;3271;51.910;5.840;2023-02-15T16:37:57;29.67;;;21.77;;
6475;SDS011;3271;51.910;5.840;2023-02-15T16:42:52;27.45;;;21.35;;
6475;SDS011;3271;51.910;5.840;2023-02-15T16:45:20;33.08;;;22.38;;
6475;SDS011;3271;51.910;5.840;2023-02-15T16:47:49;27.67;;;22.20;;
6475;SDS011;3271;51.910;5.840;2023-02-15T16:50:23;31.85;;;22.17;;
6475;SDS011;3271;51.910;5.840;2023-02-15T16:52:49;29.50;;;20.38;;
6475;SDS011;3271;51.910;5.840;2023-02-15T16:55:27;30.65;;;21.17;;
6475;SDS011;3271;51.910;5.840;2023-02-15T16:57:55;28.75;;;22.20;;
6475;SDS011;3271;51.910;5.840;2023-02-15T17:00:22;29.83;;;22.70;;
6475;SDS011;3271;51.910;5.840;2023-02-15T17:03:20;29.77;;;22.08;;
6475;SDS011;3271;51.910;5.840;2023-02-15T17:05:47;29.35;;;22.33;;
6475;SDS011;3271;51.910;5.840;2023-02-15T17:08:26;31.13;;;22.17;;
6475;SDS011;3271;51.910;5.840;2023-02-15T17:13:28;32.83;;;22.13;;
6475;SDS011;3271;51.910;5.840;2023-02-15T17:18:46;27.95;;;22.15;;
6475;SDS011;3271;51.910;5.840;2023-02-15T17:21:13;31.83;;;23.20;;
6475;SDS011;3271;51.910;5.840;2023-02-15T17:23:43;35.42;;;24.67;;
6475;SDS011;3271;51.910;5.840;2023-02-15T17:26:17;31.00;;;21.73;;
6475;SDS011;3271;51.910;5.840;2023-02-15T17:28:45;30.20;;;22.02;;
6475;SDS011;3271;51.910;5.840;2023-02-15T17:31:12;30.13;;;21.73;;
6475;SDS011;3271;51.910;5.840;2023-02-15T17:33:39;29.02;;;21.92;;
6475;SDS011;3271;51.910;5.840;2023-02-15T17:36:12;26.02;;;20.27;;
6475;SDS011;3271;51.910;5.840;2023-02-15T17:38:39;30.65;;;21.48;;
6475;SDS011;3271;51.910;5.840;2023-02-15T17:41:06;26.95;;;21.63;;
6475;SDS011;3271;51.910;5.840;2023-02-15T17:43:32;29.95;;;22.38;;
6475;SDS011;3271;51.910;5.840;2023-02-15T17:45:58;30.80;;;20.48;;